sensor_id;sensor_type;location;lat;lon;timestamp;pressure;altitude;pressure_sealevel;temperature;humidity
53270;BME280;39159;45.634;9.420;2024-02-21T00:01:45;99763.94;;;8.13;100.00
53270;BME280;39159;45.634;9.420;2024-02-21T00:04:11;99759.56;;;8.02;100.00
53270;BME280;39159;45.634;9.420;2024-02-21T00:06:36;99756.31;;;8.00;100.00
53270;BME280;39159;45.634;9.420;2024-02-21T00:09:02;99758.22;;;7.94;100.00
53270;BME280;39159;45.634;9.420;2024-02-21T00:11:28;99757.38;;;7.94;100.00
53270;BME280;39159;45.634;9.420;2024-02-21T00:13:53;99761.75;;;8.00;100.00
53270;BME280;39159;45.634;9.420;2024-02-21T00:16:18;99756.84;;;8.02;100.00
53270;BME280;39159;45.634;9.420;2024-02-21T00:18:45;99755.78;;;8.03;100.00
53270;BME280;39159;45.634;9.420;2024-02-21T00:21:10;99750.63;;;8.01;100.00
53270;BME280;39159;45.634;9.420;2024-02-21T00:23:40;99753.59;;;8.00;100.00
53270;BME280;39159;45.634;9.420;2024-02-21T00:26:05;99744.38;;;8.06;100.00
53270;BME280;39159;45.634;9.420;2024-02-21T00:28:31;99750.09;;;8.09;100.00
53270;BME280;39159;45.634;9.420;2024-02-21T00:30:56;99739.75;;;8.12;100.00
53270;BME280;39159;45.634;9.420;2024-02-21T00:33:22;99747.38;;;8.09;100.00
53270;BME280;39159;45.634;9.420;2024-02-21T00:35:47;99748.44;;;8.03;100.00
53270;BME280;39159;45.634;9.420;2024-02-21T00:38:12;99745.72;;;7.98;100.00
53270;BME280;39159;45.634;9.420;2024-02-21T00:40:38;99743.00;;;7.93;100.00
53270;BME280;39159;45.634;9.420;2024-02-21T00:43:03;99740.28;;;7.88;100.00
53270;BME280;39159;45.634;9.420;2024-02-21T00:45:29;99741.34;;;7.82;100.00
53270;BME280;39159;45.634;9.420;2024-02-21T00:47:54;99740.28;;;7.83;100.00
53270;BME280;39159;45.634;9.420;2024-02-21T00:50:19;99740.81;;;7.80;96.17
53270;BME280;39159;45.634;9.420;2024-02-21T00:52:45;99737.28;;;7.74;94.76
53270;BME280;39159;45.634;9.420;2024-02-21T00:55:10;99741.06;;;7.68;93.97
53270;BME280;39159;45.634;9.420;2024-02-21T00:57:36;99746.22;;;7.64;90.98
53270;BME280;39159;45.634;9.420;2024-02-21T01:00:03;99743.50;;;7.59;87.63
53270;BME280;39159;45.634;9.420;2024-02-21T01:02:28;99742.13;;;7.57;84.48
53270;BME280;39159;45.634;9.420;2024-02-21T01:04:57;99739.69;;;7.55;80.78
53270;BME280;39159;45.634;9.420;2024-02-21T01:07:22;99746.47;;;7.58;77.69
53270;BME280;39159;45.634;9.420;2024-02-21T01:09:47;99751.09;;;7.57;75.01
53270;BME280;39159;45.634;9.420;2024-02-21T01:12:13;99755.16;;;7.60;72.80
53270;BME280;39159;45.634;9.420;2024-02-21T01:14:38;99749.22;;;7.63;72.17
53270;BME280;39159;45.634;9.420;2024-02-21T01:17:03;99745.16;;;7.65;71.86
53270;BME280;39159;45.634;9.420;2024-02-21T01:19:31;99747.59;;;7.67;73.13
53270;BME280;39159;45.634;9.420;2024-02-21T01:21:56;99744.06;;;7.72;73.50
53270;BME280;39159;45.634;9.420;2024-02-21T01:24:22;99741.34;;;7.77;74.60
53270;BME280;39159;45.634;9.420;2024-02-21T01:26:47;99735.91;;;7.77;74.13
53270;BME280;39159;45.634;9.420;2024-02-21T01:29:12;99735.63;;;7.73;74.95
53270;BME280;39159;45.634;9.420;2024-02-21T01:31:38;99740.81;;;7.75;75.45
53270;BME280;39159;45.634;9.420;2024-02-21T01:34:03;99739.72;;;7.71;77.01
53270;BME280;39159;45.634;9.420;2024-02-21T01:36:28;99746.22;;;7.64;74.65
53270;BME280;39159;45.634;9.420;2024-02-21T01:38:54;99746.22;;;7.64;73.24
53270;BME280;39159;45.634;9.420;2024-02-21T01:41:19;99743.25;;;7.61;72.54
53270;BME280;39159;45.634;9.420;2024-02-21T01:43:44;99737.00;;;7.60;67.56
53270;BME280;39159;45.634;9.420;2024-02-21T01:46:10;99735.09;;;7.61;68.16
53270;BME280;39159;45.634;9.420;2024-02-21T01:48:36;99741.03;;;7.58;69.78
53270;BME280;39159;45.634;9.420;2024-02-21T01:51:03;99745.13;;;7.55;66.03
53270;BME280;39159;45.634;9.420;2024-02-21T01:53:31;99732.63;;;7.54;65.44
53270;BME280;39159;45.634;9.420;2024-02-21T01:55:57;99744.59;;;7.58;65.31
53270;BME280;39159;45.634;9.420;2024-02-21T01:58:23;99733.72;;;7.58;64.64
53270;BME280;39159;45.634;9.420;2024-02-21T02:00:50;99736.16;;;7.60;64.74
53270;BME280;39159;45.634;9.420;2024-02-21T02:03:15;99736.16;;;7.60;66.10
53270;BME280;39159;45.634;9.420;2024-02-21T02:05:48;99732.06;;;7.62;67.30
53270;BME280;39159;45.634;9.420;2024-02-21T02:08:18;99732.06;;;7.62;69.11
53270;BME280;39159;45.634;9.420;2024-02-21T02:10:44;99730.47;;;7.56;68.77
53270;BME280;39159;45.634;9.420;2024-02-21T02:13:10;99735.56;;;7.42;68.07
53270;BME280;39159;45.634;9.420;2024-02-21T02:18:05;99733.34;;;7.24;70.97
53270;BME280;39159;45.634;9.420;2024-02-21T02:20:30;99745.56;;;7.26;70.58
53270;BME280;39159;45.634;9.420;2024-02-21T02:22:56;99741.22;;;7.20;72.20
53270;BME280;39159;45.634;9.420;2024-02-21T02:25:22;99736.56;;;7.16;70.55
53270;BME280;39159;45.634;9.420;2024-02-21T02:27:47;99740.63;;;7.03;71.25
53270;BME280;39159;45.634;9.420;2024-02-21T02:30:13;99739.78;;;7.02;70.51
53270;BME280;39159;45.634;9.420;2024-02-21T02:32:38;99737.31;;;6.96;69.89
53270;BME280;39159;45.634;9.420;2024-02-21T02:35:04;99736.78;;;6.94;70.28
53270;BME280;39159;45.634;9.420;2024-02-21T02:37:29;99744.38;;;6.97;67.76
53270;BME280;39159;45.634;9.420;2024-02-21T02:39:55;99747.06;;;6.92;69.44
53270;BME280;39159;45.634;9.420;2024-02-21T02:42:20;99746.22;;;6.86;70.44
53270;BME280;39159;45.634;9.420;2024-02-21T02:44:45;99750.03;;;6.85;70.02
53270;BME280;39159;45.634;9.420;2024-02-21T02:47:11;99750.03;;;6.85;69.25
53270;BME280;39159;45.634;9.420;2024-02-21T02:49:36;99738.38;;;6.90;65.37
53270;BME280;39159;45.634;9.420;2024-02-21T02:52:01;99738.16;;;6.96;63.99
53270;BME280;39159;45.634;9.420;2024-02-21T02:54:27;99739.53;;;7.04;62.01
53270;BME280;39159;45.634;9.420;2024-02-21T02:56:52;99746.88;;;7.09;61.09
53270;BME280;39159;45.634;9.420;2024-02-21T02:59:18;99743.09;;;7.15;60.36
53270;BME280;39159;45.634;9.420;2024-02-21T03:01:43;99739.56;;;7.14;59.94
53270;BME280;39159;45.634;9.420;2024-02-21T03:04:08;99728.72;;;7.14;61.55
53270;BME280;39159;45.634;9.420;2024-02-21T03:06:35;99727.59;;;7.10;62.45
53270;BME280;39159;45.634;9.420;2024-02-21T03:09:00;99720.53;;;7.04;62.00
53270;BME280;39159;45.634;9.420;2024-02-21T03:11:25;99719.47;;;7.05;61.11
53270;BME280;39159;45.634;9.420;2024-02-21T03:13:55;99727.03;;;7.03;59.97
53270;BME280;39159;45.634;9.420;2024-02-21T03:16:21;99727.88;;;7.09;57.96
53270;BME280;39159;45.634;9.420;2024-02-21T03:18:47;99734.94;;;7.10;58.72
53270;BME280;39159;45.634;9.420;2024-02-21T03:21:12;99734.66;;;7.11;57.78
53270;BME280;39159;45.634;9.420;2024-02-21T03:23:37;99731.44;;;7.14;56.81
53270;BME280;39159;45.634;9.420;2024-02-21T03:26:03;99720.03;;;7.17;55.04
53270;BME280;39159;45.634;9.420;2024-02-21T03:28:28;99729.28;;;7.26;54.78
53270;BME280;39159;45.634;9.420;2024-02-21T03:30:54;99725.22;;;7.29;53.62
53270;BME280;39159;45.634;9.420;2024-02-21T03:33:19;99718.16;;;7.33;53.22
53270;BME280;39159;45.634;9.420;2024-02-21T03:35:46;99716.00;;;7.35;52.80
53270;BME280;39159;45.634;9.420;2024-02-21T03:38:11;99724.44;;;7.39;52.61
53270;BME280;39159;45.634;9.420;2024-02-21T03:40:36;99725.00;;;7.41;52.06
53270;BME280;39159;45.634;9.420;2024-02-21T03:43:02;99725.53;;;7.48;50.77
53270;BME280;39159;45.634;9.420;2024-02-21T03:45:27;99725.56;;;7.58;49.60
53270;BME280;39159;45.634;9.420;2024-02-21T03:47:52;99728.00;;;7.60;50.54
53270;BME280;39159;45.634;9.420;2024-02-21T03:50:18;99725.03;;;7.56;50.49
53270;BME280;39159;45.634;9.420;2024-02-21T03:52:44;99723.13;;;7.57;50.43
53270;BME280;39159;45.634;9.420;2024-02-21T03:55:09;99724.19;;;7.56;49.70
53270;BME280;39159;45.634;9.420;2024-02-21T03:57:34;99736.41;;;7.53;49.81
53270;BME280;39159;45.634;9.420;2024-02-21T04:00:00;99740.78;;;7.54;50.12
53270;BME280;39159;45.634;9.420;2024-02-21T04:02:25;99739.69;;;7.50;50.47
53270;BME280;39159;45.634;9.420;2024-02-21T04:04:50;99745.91;;;7.51;51.26
53270;BME280;39159;45.634;9.420;2024-02-21T04:07:16;99738.56;;;7.46;51.06
53270;BME280;39159;45.634;9.420;2024-02-21T04:09:41;99731.78;;;7.48;51.07
53270;BME280;39159;45.634;9.420;2024-02-21T04:12:08;99726.91;;;7.45;53.16
53270;BME280;39159;45.634;9.420;2024-02-21T04:14:33;99733.94;;;7.41;51.25
53270;BME280;39159;45.634;9.420;2024-02-21T04:17:00;99743.72;;;7.37;52.55
53270;BME280;39159;45.634;9.420;2024-02-21T04:19:25;99748.31;;;7.32;52.76
53270;BME280;39159;45.634;9.420;2024-02-21T04:21:50;99740.69;;;7.29;52.39
53270;BME280;39159;45.634;9.420;2024-02-21T04:24:16;99743.69;;;7.27;52.89
53270;BME280;39159;45.634;9.420;2024-02-21T04:26:41;99750.44;;;7.19;52.21
53270;BME280;39159;45.634;9.420;2024-02-21T04:29:06;99753.94;;;7.15;52.77
53270;BME280;39159;45.634;9.420;2024-02-21T04:31:32;99747.97;;;7.13;53.19
53270;BME280;39159;45.634;9.420;2024-02-21T04:33:58;99749.56;;;7.09;53.20
53270;BME280;39159;45.634;9.420;2024-02-21T04:36:23;99741.97;;;7.05;53.03
53270;BME280;39159;45.634;9.420;2024-02-21T04:38:49;99743.34;;;7.03;52.93
53270;BME280;39159;45.634;9.420;2024-02-21T04:41:15;99748.72;;;6.98;53.09
53270;BME280;39159;45.634;9.420;2024-02-21T04:43:41;99742.22;;;6.99;53.52
53270;BME280;39159;45.634;9.420;2024-02-21T04:46:06;99732.72;;;6.96;54.52
53270;BME280;39159;45.634;9.420;2024-02-21T04:48:31;99730.50;;;6.93;54.45
53270;BME280;39159;45.634;9.420;2024-02-21T04:50:57;99728.63;;;6.94;54.94
53270;BME280;39159;45.634;9.420;2024-02-21T04:53:22;99717.25;;;6.97;55.53
53270;BME280;39159;45.634;9.420;2024-02-21T04:55:48;99723.75;;;6.96;54.93
53270;BME280;39159;45.634;9.420;2024-02-21T04:58:13;99723.97;;;6.89;54.82
53270;BME280;39159;45.634;9.420;2024-02-21T05:00:38;99726.94;;;6.82;54.57
53270;BME280;39159;45.634;9.420;2024-02-21T05:03:04;99723.13;;;6.78;54.53
53270;BME280;39159;45.634;9.420;2024-02-21T05:05:29;99727.97;;;6.71;55.72
53270;BME280;39159;45.634;9.420;2024-02-21T05:07:55;99728.75;;;6.67;55.89
53270;BME280;39159;45.634;9.420;2024-02-21T05:10:20;99732.56;;;6.66;55.92
53270;BME280;39159;45.634;9.420;2024-02-21T05:12:46;99735.28;;;6.66;59.57
53270;BME280;39159;45.634;9.420;2024-02-21T05:15:11;99743.28;;;6.98;88.57
53270;BME280;39159;45.634;9.420;2024-02-21T05:17:36;99751.75;;;7.06;62.48
53270;BME280;39159;45.634;9.420;2024-02-21T05:20:02;99754.19;;;7.03;58.01
53270;BME280;39159;45.634;9.420;2024-02-21T05:22:28;99750.94;;;7.11;61.03
53270;BME280;39159;45.634;9.420;2024-02-21T05:24:53;99755.06;;;7.19;60.92
53270;BME280;39159;45.634;9.420;2024-02-21T05:27:19;99750.44;;;7.24;57.82
53270;BME280;39159;45.634;9.420;2024-02-21T05:29:44;99753.97;;;7.20;57.80
53270;BME280;39159;45.634;9.420;2024-02-21T05:32:09;99756.94;;;7.13;59.31
53270;BME280;39159;45.634;9.420;2024-02-21T05:34:35;99757.75;;;7.14;61.71
53270;BME280;39159;45.634;9.420;2024-02-21T05:37:00;99759.63;;;7.13;58.45
53270;BME280;39159;45.634;9.420;2024-02-21T05:39:26;99751.97;;;7.00;58.29
53270;BME280;39159;45.634;9.420;2024-02-21T05:41:51;99756.34;;;7.06;58.80
53270;BME280;39159;45.634;9.420;2024-02-21T05:44:17;99752.03;;;7.05;59.18
53270;BME280;39159;45.634;9.420;2024-02-21T05:46:43;99759.88;;;7.06;59.00
53270;BME280;39159;45.634;9.420;2024-02-21T05:49:08;99756.09;;;7.08;58.74
53270;BME280;39159;45.634;9.420;2024-02-21T05:51:34;99749.03;;;7.06;59.16
53270;BME280;39159;45.634;9.420;2024-02-21T05:54:00;99755.28;;;7.07;59.56
53270;BME280;39159;45.634;9.420;2024-02-21T05:56:25;99757.72;;;7.09;59.65
53270;BME280;39159;45.634;9.420;2024-02-21T05:58:51;99747.09;;;7.02;60.65
53270;BME280;39159;45.634;9.420;2024-02-21T06:01:16;99751.16;;;6.94;61.31
53270;BME280;39159;45.634;9.420;2024-02-21T06:03:43;99744.31;;;6.87;59.69
53270;BME280;39159;45.634;9.420;2024-02-21T06:06:08;99741.09;;;6.90;59.57
53270;BME280;39159;45.634;9.420;2024-02-21T06:08:33;99746.28;;;6.96;62.12
53270;BME280;39159;45.634;9.420;2024-02-21T06:10:59;99743.28;;;6.98;62.12
53270;BME280;39159;45.634;9.420;2024-02-21T06:13:24;99735.75;;;7.05;63.18
53270;BME280;39159;45.634;9.420;2024-02-21T06:15:50;99732.47;;;7.03;58.78
53270;BME280;39159;45.634;9.420;2024-02-21T06:18:17;99721.56;;;6.98;59.00
53270;BME280;39159;45.634;9.420;2024-02-21T06:20:42;99716.75;;;7.05;57.76
53270;BME280;39159;45.634;9.420;2024-02-21T06:23:08;99726.75;;;6.99;58.48
53270;BME280;39159;45.634;9.420;2024-02-21T06:25:34;99735.38;;;6.91;59.48
53270;BME280;39159;45.634;9.420;2024-02-21T06:27:59;99735.88;;;6.78;58.01
53270;BME280;39159;45.634;9.420;2024-02-21T06:30:25;99731.50;;;6.72;57.88
53270;BME280;39159;45.634;9.420;2024-02-21T06:32:50;99739.09;;;6.70;58.70
53270;BME280;39159;45.634;9.420;2024-02-21T06:35:16;99733.38;;;6.66;59.20
53270;BME280;39159;45.634;9.420;2024-02-21T06:37:42;99738.22;;;6.59;59.53
53270;BME280;39159;45.634;9.420;2024-02-21T06:40:07;99749.34;;;6.62;59.22
53270;BME280;39159;45.634;9.420;2024-02-21T06:42:34;99759.38;;;6.62;58.37
53270;BME280;39159;45.634;9.420;2024-02-21T06:44:59;99768.59;;;6.61;58.34
53270;BME280;39159;45.634;9.420;2024-02-21T06:47:25;99763.91;;;6.51;58.14
53270;BME280;39159;45.634;9.420;2024-02-21T06:49:50;99764.13;;;6.44;57.88
53270;BME280;39159;45.634;9.420;2024-02-21T06:52:19;99784.25;;;6.49;57.54
53270;BME280;39159;45.634;9.420;2024-02-21T06:54:49;99772.06;;;6.51;58.68
53270;BME280;39159;45.634;9.420;2024-02-21T06:57:14;99775.66;;;6.62;57.07
53270;BME280;39159;45.634;9.420;2024-02-21T06:59:41;99775.16;;;6.65;57.28
53270;BME280;39159;45.634;9.420;2024-02-21T07:02:06;99774.91;;;6.72;56.94
53270;BME280;39159;45.634;9.420;2024-02-21T07:04:32;99776.31;;;6.79;57.23
53270;BME280;39159;45.634;9.420;2024-02-21T07:06:57;99781.81;;;6.90;56.96
53270;BME280;39159;45.634;9.420;2024-02-21T07:09:23;99780.19;;;6.94;57.79
53270;BME280;39159;45.634;9.420;2024-02-21T07:11:48;99778.88;;;7.01;56.62
53270;BME280;39159;45.634;9.420;2024-02-21T07:14:14;99786.78;;;7.13;58.20
53270;BME280;39159;45.634;9.420;2024-02-21T07:16:40;99780.31;;;7.24;57.24
53270;BME280;39159;45.634;9.420;2024-02-21T07:19:06;99785.53;;;7.36;57.06
53270;BME280;39159;45.634;9.420;2024-02-21T07:21:31;99787.16;;;7.42;56.94
53270;BME280;39159;45.634;9.420;2024-02-21T07:23:57;99788.81;;;7.48;56.57
53270;BME280;39159;45.634;9.420;2024-02-21T07:26:22;99792.38;;;7.54;57.50
53270;BME280;39159;45.634;9.420;2024-02-21T07:28:47;99792.69;;;7.63;56.76
53270;BME280;39159;45.634;9.420;2024-02-21T07:31:13;99790.25;;;7.72;55.79
53270;BME280;39159;45.634;9.420;2024-02-21T07:33:38;99796.25;;;7.79;55.40
53270;BME280;39159;45.634;9.420;2024-02-21T07:36:10;99798.44;;;7.87;55.23
53270;BME280;39159;45.634;9.420;2024-02-21T07:38:36;99794.38;;;7.95;54.85
53270;BME280;39159;45.634;9.420;2024-02-21T07:41:02;99806.63;;;8.13;54.99
53270;BME280;39159;45.634;9.420;2024-02-21T07:43:29;99810.16;;;8.28;55.86
53270;BME280;39159;45.634;9.420;2024-02-21T07:45:54;99818.63;;;8.42;54.77
53270;BME280;39159;45.634;9.420;2024-02-21T07:48:21;99823.50;;;8.56;54.60
53270;BME280;39159;45.634;9.420;2024-02-21T07:50:49;99822.44;;;8.72;55.30
53270;BME280;39159;45.634;9.420;2024-02-21T07:53:15;99831.66;;;8.81;53.73
53270;BME280;39159;45.634;9.420;2024-02-21T07:55:40;99829.19;;;8.95;54.18
53270;BME280;39159;45.634;9.420;2024-02-21T07:58:05;99831.88;;;9.05;54.46
53270;BME280;39159;45.634;9.420;2024-02-21T08:00:31;99834.31;;;9.07;53.44
53270;BME280;39159;45.634;9.420;2024-02-21T08:02:57;99835.41;;;9.11;53.50
53270;BME280;39159;45.634;9.420;2024-02-21T08:05:22;99832.91;;;9.25;53.90
53270;BME280;39159;45.634;9.420;2024-02-21T08:07:48;99837.22;;;9.41;53.03
53270;BME280;39159;45.634;9.420;2024-02-21T08:10:14;99834.66;;;9.65;53.01
53270;BME280;39159;45.634;9.420;2024-02-21T08:12:40;99840.06;;;9.75;51.69
53270;BME280;39159;45.634;9.420;2024-02-21T08:15:05;99841.34;;;9.88;51.51
53270;BME280;39159;45.634;9.420;2024-02-21T08:17:33;99827.47;;;9.85;51.30
53270;BME280;39159;45.634;9.420;2024-02-21T08:19:59;99831.22;;;9.99;51.23
53270;BME280;39159;45.634;9.420;2024-02-21T08:22:24;99828.38;;;10.14;51.37
53270;BME280;39159;45.634;9.420;2024-02-21T08:24:50;99832.19;;;10.19;51.00
53270;BME280;39159;45.634;9.420;2024-02-21T08:27:15;99824.13;;;10.37;51.33
53270;BME280;39159;45.634;9.420;2024-02-21T08:29:40;99825.69;;;10.49;51.05
53270;BME280;39159;45.634;9.420;2024-02-21T08:32:06;99811.63;;;10.66;50.65
53270;BME280;39159;45.634;9.420;2024-02-21T08:34:31;99815.44;;;10.65;50.72
53270;BME280;39159;45.634;9.420;2024-02-21T08:36:59;99818.03;;;10.80;51.40
53270;BME280;39159;45.634;9.420;2024-02-21T08:39:24;99809.66;;;11.01;51.93
53270;BME280;39159;45.634;9.420;2024-02-21T08:41:50;99802.63;;;11.18;52.25
53270;BME280;39159;45.634;9.420;2024-02-21T08:44:16;99806.53;;;11.31;51.62
53270;BME280;39159;45.634;9.420;2024-02-21T08:46:41;99806.06;;;11.48;51.58
53270;BME280;39159;45.634;9.420;2024-02-21T08:49:09;99809.34;;;11.69;51.05
53270;BME280;39159;45.634;9.420;2024-02-21T08:51:35;99807.69;;;11.92;50.47
53270;BME280;39159;45.634;9.420;2024-02-21T08:54:00;99807.31;;;12.18;50.88
53270;BME280;39159;45.634;9.420;2024-02-21T08:56:26;99805.75;;;12.31;50.12
53270;BME280;39159;45.634;9.420;2024-02-21T08:58:51;99810.81;;;12.56;50.13
53270;BME280;39159;45.634;9.420;2024-02-21T09:01:17;99807.69;;;12.63;50.20
53270;BME280;39159;45.634;9.420;2024-02-21T09:03:42;99795.44;;;12.74;50.01
53270;BME280;39159;45.634;9.420;2024-02-21T09:06:09;99802.94;;;12.82;47.94
53270;BME280;39159;45.634;9.420;2024-02-21T09:08:35;99804.88;;;12.96;47.69
53270;BME280;39159;45.634;9.420;2024-02-21T09:11:01;99795.34;;;13.07;46.95
53270;BME280;39159;45.634;9.420;2024-02-21T09:13:26;99798.69;;;13.18;47.03
53270;BME280;39159;45.634;9.420;2024-02-21T09:15:52;99802.06;;;13.42;47.07
53270;BME280;39159;45.634;9.420;2024-02-21T09:18:17;99802.53;;;13.86;46.46
53270;BME280;39159;45.634;9.420;2024-02-21T09:20:43;99805.06;;;14.19;44.66
53270;BME280;39159;45.634;9.420;2024-02-21T09:23:09;99809.34;;;14.11;45.06
53270;BME280;39159;45.634;9.420;2024-02-21T09:25:34;99791.34;;;14.41;42.80
53270;BME280;39159;45.634;9.420;2024-02-21T09:28:01;99798.88;;;14.81;42.79
53270;BME280;39159;45.634;9.420;2024-02-21T09:30:27;99809.59;;;14.91;40.31
53270;BME280;39159;45.634;9.420;2024-02-21T09:32:52;99810.22;;;14.88;41.38
53270;BME280;39159;45.634;9.420;2024-02-21T09:35:18;99812.16;;;14.87;42.19
53270;BME280;39159;45.634;9.420;2024-02-21T09:37:43;99807.59;;;14.83;42.43
53270;BME280;39159;45.634;9.420;2024-02-21T09:40:09;99805.88;;;14.64;41.30
53270;BME280;39159;45.634;9.420;2024-02-21T09:42:38;99816.72;;;14.69;41.27
53270;BME280;39159;45.634;9.420;2024-02-21T09:45:20;99809.97;;;15.07;41.27
53270;BME280;39159;45.634;9.420;2024-02-21T09:50:24;99805.19;;;15.21;40.42
53270;BME280;39159;45.634;9.420;2024-02-21T09:52:51;99810.19;;;15.19;41.08
53270;BME280;39159;45.634;9.420;2024-02-21T09:55:19;99807.03;;;15.34;40.77
53270;BME280;39159;45.634;9.420;2024-02-21T09:57:45;99806.59;;;15.59;40.87
53270;BME280;39159;45.634;9.420;2024-02-21T10:00:11;99805.31;;;15.07;40.83
53270;BME280;39159;45.634;9.420;2024-02-21T10:02:39;99810.34;;;15.23;39.59
53270;BME280;39159;45.634;9.420;2024-02-21T10:05:04;99804.28;;;15.34;40.54
53270;BME280;39159;45.634;9.420;2024-02-21T10:07:33;99803.19;;;15.53;40.59
53270;BME280;39159;45.634;9.420;2024-02-21T10:10:05;99812.31;;;15.71;40.43
53270;BME280;39159;45.634;9.420;2024-02-21T10:12:31;99808.28;;;15.86;40.22
53270;BME280;39159;45.634;9.420;2024-02-21T10:15:04;99808.44;;;15.81;39.59
53270;BME280;39159;45.634;9.420;2024-02-21T10:17:29;99802.81;;;15.94;39.93
53270;BME280;39159;45.634;9.420;2024-02-21T10:19:55;99816.56;;;15.94;41.03
53270;BME280;39159;45.634;9.420;2024-02-21T10:22:21;99807.47;;;15.77;42.03
53270;BME280;39159;45.634;9.420;2024-02-21T10:24:46;99811.63;;;15.57;42.97
53270;BME280;39159;45.634;9.420;2024-02-21T10:27:12;99810.91;;;15.42;43.59
53270;BME280;39159;45.634;9.420;2024-02-21T10:29:38;99816.28;;;15.56;44.87
53270;BME280;39159;45.634;9.420;2024-02-21T10:32:08;99808.94;;;16.09;44.02
53270;BME280;39159;45.634;9.420;2024-02-21T10:34:34;99811.03;;;16.29;41.32
53270;BME280;39159;45.634;9.420;2024-02-21T10:37:04;99810.91;;;16.26;40.79
53270;BME280;39159;45.634;9.420;2024-02-21T10:39:34;99800.69;;;16.00;41.98
53270;BME280;39159;45.634;9.420;2024-02-21T10:42:01;99803.25;;;16.40;41.07
53270;BME280;39159;45.634;9.420;2024-02-21T10:44:31;99800.44;;;16.75;42.00
53270;BME280;39159;45.634;9.420;2024-02-21T10:46:57;99798.34;;;16.81;41.34
53270;BME280;39159;45.634;9.420;2024-02-21T10:49:24;99795.59;;;16.81;40.17
53270;BME280;39159;45.634;9.420;2024-02-21T10:52:32;99784.38;;;16.77;40.56
53270;BME280;39159;45.634;9.420;2024-02-21T10:55:10;99791.72;;;16.64;41.01
53270;BME280;39159;45.634;9.420;2024-02-21T10:57:39;99779.19;;;16.84;40.91
53270;BME280;39159;45.634;9.420;2024-02-21T11:00:05;99774.59;;;17.06;41.90
53270;BME280;39159;45.634;9.420;2024-02-21T11:02:33;99769.78;;;17.24;42.13
53270;BME280;39159;45.634;9.420;2024-02-21T11:04:59;99762.66;;;17.23;42.12
53270;BME280;39159;45.634;9.420;2024-02-21T11:07:26;99757.84;;;17.11;41.42
53270;BME280;39159;45.634;9.420;2024-02-21T11:09:53;99753.72;;;16.87;41.01
53270;BME280;39159;45.634;9.420;2024-02-21T11:12:21;99756.97;;;16.89;41.04
53270;BME280;39159;45.634;9.420;2024-02-21T11:14:47;99743.78;;;17.04;41.30
53270;BME280;39159;45.634;9.420;2024-02-21T11:17:16;99743.44;;;17.05;41.19
53270;BME280;39159;45.634;9.420;2024-02-21T11:19:42;99737.31;;;16.99;40.73
53270;BME280;39159;45.634;9.420;2024-02-21T11:22:15;99734.81;;;16.68;41.28
53270;BME280;39159;45.634;9.420;2024-02-21T11:24:42;99738.06;;;16.62;41.72
53270;BME280;39159;45.634;9.420;2024-02-21T11:27:14;99735.88;;;16.93;41.66
53270;BME280;39159;45.634;9.420;2024-02-21T11:29:40;99729.28;;;17.15;41.48
53270;BME280;39159;45.634;9.420;2024-02-21T11:32:09;99726.78;;;17.23;41.72
53270;BME280;39159;45.634;9.420;2024-02-21T11:34:35;99726.31;;;17.20;42.97
53270;BME280;39159;45.634;9.420;2024-02-21T11:37:00;99723.41;;;17.47;42.73
53270;BME280;39159;45.634;9.420;2024-02-21T11:39:26;99716.34;;;17.58;42.52
53270;BME280;39159;45.634;9.420;2024-02-21T11:42:05;99716.88;;;17.72;41.03
53270;BME280;39159;45.634;9.420;2024-02-21T11:44:33;99712.09;;;17.39;41.76
53270;BME280;39159;45.634;9.420;2024-02-21T11:46:59;99710.38;;;17.26;42.08
53270;BME280;39159;45.634;9.420;2024-02-21T11:49:25;99702.09;;;17.05;42.53
53270;BME280;39159;45.634;9.420;2024-02-21T11:52:01;99687.66;;;16.99;42.77
53270;BME280;39159;45.634;9.420;2024-02-21T11:54:30;99681.81;;;17.01;43.51
53270;BME280;39159;45.634;9.420;2024-02-21T11:56:55;99677.81;;;17.19;43.35
53270;BME280;39159;45.634;9.420;2024-02-21T11:59:20;99673.44;;;17.18;43.51
53270;BME280;39159;45.634;9.420;2024-02-21T12:01:46;99665.09;;;17.06;44.51
53270;BME280;39159;45.634;9.420;2024-02-21T12:04:12;99653.81;;;17.41;43.17
53270;BME280;39159;45.634;9.420;2024-02-21T12:06:38;99637.38;;;17.66;43.97
53270;BME280;39159;45.634;9.420;2024-02-21T12:09:07;99634.00;;;17.81;43.10
53270;BME280;39159;45.634;9.420;2024-02-21T12:11:34;99630.91;;;17.61;43.75
53270;BME280;39159;45.634;9.420;2024-02-21T12:14:03;99628.00;;;17.79;43.64
53270;BME280;39159;45.634;9.420;2024-02-21T12:16:33;99625.78;;;17.09;43.94
53270;BME280;39159;45.634;9.420;2024-02-21T12:18:59;99620.63;;;17.29;44.65
53270;BME280;39159;45.634;9.420;2024-02-21T12:21:34;99626.75;;;17.13;44.02
53270;BME280;39159;45.634;9.420;2024-02-21T12:24:17;99615.44;;;17.48;43.96
53270;BME280;39159;45.634;9.420;2024-02-21T12:26:46;99609.06;;;17.56;43.99
53270;BME280;39159;45.634;9.420;2024-02-21T12:29:11;99610.59;;;17.45;44.13
53270;BME280;39159;45.634;9.420;2024-02-21T12:31:37;99599.69;;;17.49;45.64
53270;BME280;39159;45.634;9.420;2024-02-21T12:34:03;99605.06;;;17.45;45.07
53270;BME280;39159;45.634;9.420;2024-02-21T12:36:30;99605.84;;;17.12;45.86
53270;BME280;39159;45.634;9.420;2024-02-21T12:38:55;99604.94;;;17.20;46.97
53270;BME280;39159;45.634;9.420;2024-02-21T12:41:20;99602.94;;;17.30;45.90
53270;BME280;39159;45.634;9.420;2024-02-21T12:43:46;99597.06;;;17.31;45.75
53270;BME280;39159;45.634;9.420;2024-02-21T12:46:12;99602.06;;;17.38;46.20
53270;BME280;39159;45.634;9.420;2024-02-21T12:48:37;99590.16;;;17.46;45.68
53270;BME280;39159;45.634;9.420;2024-02-21T12:51:03;99588.78;;;17.52;46.08
53270;BME280;39159;45.634;9.420;2024-02-21T12:53:29;99583.28;;;17.52;46.50
53270;BME280;39159;45.634;9.420;2024-02-21T12:55:55;99585.44;;;17.05;46.55
53270;BME280;39159;45.634;9.420;2024-02-21T12:58:21;99578.91;;;17.30;47.21
53270;BME280;39159;45.634;9.420;2024-02-21T13:00:47;99567.75;;;17.48;46.51
53270;BME280;39159;45.634;9.420;2024-02-21T13:03:13;99566.06;;;17.34;48.20
53270;BME280;39159;45.634;9.420;2024-02-21T13:05:39;99561.28;;;17.23;47.92
53270;BME280;39159;45.634;9.420;2024-02-21T13:08:08;99562.53;;;17.46;48.48